Time;durP1;ratioP1;P1;durP2;ratioP2;P2;SDS_P1;SDS_P2;PMS_P1;PMS_P2;Temp;Humidity;BMP_temperature;BMP_pressure;BME280_temperature;BME280_humidity;BME280_pressure;Samples;Min_cycle;Max_cycle;Signal;HPM_P1;HPM_P2
2024/04/08 00:00:41;;;;;;;6.70;4.70;;;;;;;21.72;35.13;101355.46;107946;1264;68060;-87
2024/04/08 00:03:07;;;;;;;5.20;4.20;;;;;;;21.71;35.16;101358.06;108081;1264;69980;-87
2024/04/08 00:05:33;;;;;;;10.30;4.60;;;;;;;21.71;35.09;101354.67;107944;1264;69969;-87
2024/04/08 00:08:01;;;;;;;6.10;4.10;;;;;;;21.71;35.11;101352.62;107819;1264;70143;-88
2024/04/08 00:10:27;;;;;;;11.60;4.50;;;;;;;21.71;35.18;101353.24;107795;1264;69839;-88
2024/04/08 00:12:52;;;;;;;8.00;4.60;;;;;;;21.71;35.21;101349.91;107749;1264;70067;-87
2024/04/08 00:15:19;;;;;;;6.90;4.20;;;;;;;21.70;35.15;101351.85;107937;1263;69893;-87
2024/04/08 00:17:44;;;;;;;6.90;4.60;;;;;;;21.70;35.17;101353.23;108006;1264;68484;-87
2024/04/08 00:20:11;;;;;;;6.10;4.70;;;;;;;21.70;35.29;101351.08;107825;1268;68969;-87
2024/04/08 00:22:40;;;;;;;7.40;4.20;;;;;;;21.69;35.21;101355.38;107872;1267;68276;-88
2024/04/08 00:25:10;;;;;;;5.50;4.20;;;;;;;21.69;35.28;101356.09;107621;1264;68657;-87
2024/04/08 00:27:36;;;;;;;6.90;4.70;;;;;;;21.69;35.18;101352.90;107822;1264;76041;-87
2024/04/08 00:30:06;;;;;;;7.00;4.50;;;;;;;21.68;35.13;101357.15;107948;1264;82835;-87
2024/04/08 00:32:31;;;;;;;5.80;4.20;;;;;;;21.68;35.35;101359.45;107779;1266;72366;-87
2024/04/08 00:34:57;;;;;;;7.30;4.60;;;;;;;21.68;35.13;101360.53;107835;1264;70080;-87
2024/04/08 00:37:23;;;;;;;7.10;4.80;;;;;;;21.68;35.18;101357.97;107854;1264;70018;-87
2024/04/08 00:39:49;;;;;;;7.50;4.70;;;;;;;21.67;35.28;101355.81;107614;1264;67998;-87
2024/04/08 00:42:15;;;;;;;7.10;4.70;;;;;;;21.67;35.27;101354.37;107630;1264;68718;-87
2024/04/08 00:44:42;;;;;;;7.10;4.50;;;;;;;21.67;35.09;101356.59;107598;1267;70524;-87
2024/04/08 00:47:08;;;;;;;8.50;4.90;;;;;;;21.66;35.20;101355.09;107723;1264;68636;-87
2024/04/08 00:49:34;;;;;;;7.30;4.70;;;;;;;21.66;35.32;101358.47;107799;1266;75270;-88
2024/04/08 00:52:00;;;;;;;6.80;4.50;;;;;;;21.66;35.25;101355.80;107651;1264;70437;-87
2024/04/08 00:54:25;;;;;;;6.70;4.60;;;;;;;21.66;35.24;101354.47;107722;1271;70025;-87
2024/04/08 00:56:53;;;;;;;6.10;4.90;;;;;;;21.65;35.09;101360.52;107688;1264;67713;-87
2024/04/08 00:59:19;;;;;;;7.30;4.80;;;;;;;21.64;35.24;101358.00;107855;1264;69899;-87
2024/04/08 01:01:45;;;;;;;8.90;4.80;;;;;;;21.65;35.22;101354.77;107859;1266;68062;-86
2024/04/08 01:04:10;;;;;;;5.80;4.70;;;;;;;21.64;35.28;101359.31;107761;1264;70134;-87
2024/04/08 01:06:36;;;;;;;6.00;4.70;;;;;;;21.64;35.41;101358.77;107918;1265;67432;-87
2024/04/08 01:09:02;;;;;;;8.50;4.90;;;;;;;21.63;35.33;101358.64;107972;1264;69941;-87
2024/04/08 01:11:28;;;;;;;6.20;4.60;;;;;;;21.63;35.30;101357.67;107837;1264;68198;-87
2024/04/08 01:13:54;;;;;;;6.60;4.70;;;;;;;21.63;35.29;101359.21;108382;1264;69957;-87
2024/04/08 01:19:00;;;;;;;7.20;4.90;;;;;;;21.62;35.30;101361.75;109053;1267;67354;-87
2024/04/08 01:21:26;;;;;;;7.60;4.70;;;;;;;21.62;35.41;101361.75;108928;1267;67384;-87
2024/04/08 01:23:52;;;;;;;8.60;4.50;;;;;;;21.62;35.38;101360.77;107687;1273;69938;-87
2024/04/08 01:26:18;;;;;;;7.50;4.70;;;;;;;21.62;35.31;101358.94;107690;1267;68044;-87
2024/04/08 01:28:44;;;;;;;6.70;4.40;;;;;;;21.62;35.32;101357.97;107655;1267;68283;-87
2024/04/08 01:31:09;;;;;;;6.30;4.60;;;;;;;21.62;35.37;101358.95;107587;1267;68098;-87
2024/04/08 01:33:37;;;;;;;6.30;4.40;;;;;;;21.62;35.33;101362.67;107716;1267;69981;-87
2024/04/08 01:36:04;;;;;;;6.40;4.60;;;;;;;21.61;35.35;101361.48;107722;1267;83018;-87
2024/04/08 01:38:31;;;;;;;7.00;4.90;;;;;;;21.61;35.39;101362.15;107765;1267;72148;-87
2024/04/08 01:40:56;;;;;;;8.10;5.20;;;;;;;21.61;35.41;101357.02;107506;1267;67599;-87
2024/04/08 01:43:26;;;;;;;7.00;4.90;;;;;;;21.61;35.40;101357.90;107681;1269;67968;-93
2024/04/08 01:45:52;;;;;;;6.70;4.50;;;;;;;21.60;35.41;101355.27;107587;1267;76347;-87
2024/04/08 01:48:18;;;;;;;6.50;4.60;;;;;;;21.59;35.32;101352.79;107716;1267;69968;-87
2024/04/08 01:50:44;;;;;;;7.50;5.10;;;;;;;21.59;35.31;101354.58;107639;1266;68204;-87
2024/04/08 01:53:10;;;;;;;8.00;5.10;;;;;;;21.59;35.38;101353.14;107697;1267;68998;-87
2024/04/08 01:55:36;;;;;;;6.60;4.80;;;;;;;21.59;35.29;101353.34;107716;1265;68077;-88
2024/04/08 01:58:02;;;;;;;8.00;4.60;;;;;;;21.59;35.40;101356.05;107743;1267;70552;-87
2024/04/08 02:00:28;;;;;;;7.30;5.00;;;;;;;21.58;35.39;101350.77;107742;1271;72435;-87
2024/04/08 02:02:53;;;;;;;10.00;4.90;;;;;;;21.58;35.40;101351.69;107652;1273;70070;-87
2024/04/08 02:05:19;;;;;;;6.80;5.00;;;;;;;21.57;35.46;101351.06;107700;1266;67691;-87
2024/04/08 02:07:45;;;;;;;6.50;5.00;;;;;;;21.57;35.40;101348.81;107674;1265;70016;-87
2024/04/08 02:10:19;;;;;;;6.20;4.90;;;;;;;21.57;35.48;101351.27;107635;1266;69898;-92
2024/04/08 02:12:47;;;;;;;6.50;4.60;;;;;;;21.56;35.30;101348.49;107776;1265;72359;-86
2024/04/08 02:15:13;;;;;;;7.10;5.00;;;;;;;21.56;35.27;101349.52;108018;1266;69989;-87
2024/04/08 02:17:39;;;;;;;6.10;4.70;;;;;;;21.55;35.32;101350.69;107700;1267;70018;-87
2024/04/08 02:20:06;;;;;;;8.00;5.30;;;;;;;21.56;35.49;101350.19;107633;1267;67541;-87
2024/04/08 02:22:35;;;;;;;6.90;4.60;;;;;;;21.55;35.47;101349.91;107729;1265;70015;-87
2024/04/08 02:27:45;;;;;;;8.00;4.90;;;;;;;21.55;35.36;101350.83;107975;1265;70636;-87
2024/04/08 02:30:11;;;;;;;7.40;5.20;;;;;;;21.55;35.28;101356.77;108036;1265;69911;-87
2024/04/08 02:32:38;;;;;;;10.40;4.70;;;;;;;21.54;35.43;101355.38;107962;1265;68801;-87
2024/04/08 02:35:05;;;;;;;7.80;5.10;;;;;;;21.54;35.45;101357.23;107641;1265;70003;-87
2024/04/08 02:37:32;;;;;;;7.80;4.70;;;;;;;21.54;35.36;101359.89;107877;1265;68320;-87
2024/04/08 02:39:57;;;;;;;8.40;5.50;;;;;;;21.54;35.30;101358.45;107670;1265;69971;-87
2024/04/08 02:42:24;;;;;;;7.20;4.90;;;;;;;21.53;35.35;101358.09;107939;1265;70006;-87
2024/04/08 02:44:50;;;;;;;6.70;4.90;;;;;;;21.53;35.36;101361.46;107927;1266;69893;-87
2024/04/08 02:47:16;;;;;;;9.80;5.90;;;;;;;21.53;35.32;101360.29;107740;1266;70072;-87
2024/04/08 02:49:42;;;;;;;15.60;4.70;;;;;;;21.51;35.37;101359.55;107792;1267;69840;-87
2024/04/08 02:52:09;;;;;;;7.90;5.00;;;;;;;21.50;35.32;101361.27;107828;1266;69905;-92
2024/04/08 02:54:35;;;;;;;6.20;4.80;;;;;;;21.48;35.58;101367.45;107731;1265;70025;-87
2024/04/08 02:57:01;;;;;;;6.50;4.50;;;;;;;21.47;35.44;101366.46;107873;1265;69958;-87
2024/04/08 02:59:28;;;;;;;8.20;4.90;;;;;;;21.47;35.39;101366.71;108070;1267;68204;-88
2024/04/08 03:01:58;;;;;;;9.10;5.20;;;;;;;21.47;35.40;101368.40;107978;1269;69714;-88
2024/04/08 03:04:25;;;;;;;6.80;4.70;;;;;;;21.47;35.37;101363.65;108089;1265;68197;-89
2024/04/08 03:06:51;;;;;;;8.40;4.50;;;;;;;21.47;35.29;101361.55;108020;1270;74044;-88
2024/04/08 03:09:17;;;;;;;6.50;4.60;;;;;;;21.47;35.44;101364.63;108231;1265;69975;-89
2024/04/08 03:11:43;;;;;;;4.80;3.80;;;;;;;21.47;35.26;101366.61;107930;1265;69844;-88
2024/04/08 03:14:16;;;;;;;4.60;3.20;;;;;;;21.49;35.26;101370.33;108186;1265;67963;-89
2024/04/08 03:19:35;;;;;;;12.10;4.20;;;;;;;21.51;35.15;101372.20;108704;1265;74694;-89
2024/04/08 03:33:43;;;;;;;8.60;4.80;;;;;;;21.56;35.02;101379.31;108171;1266;74621;-89
2024/04/08 03:41:38;;;;;;;16.60;5.90;;;;;;;21.52;34.88;101384.95;108451;1266;67803;-87
2024/04/08 03:46:54;;;;;;;14.00;5.80;;;;;;;21.40;35.13;101386.65;108549;1264;74771;-87
2024/04/08 03:49:21;;;;;;;10.10;5.80;;;;;;;21.35;35.43;101387.05;108194;1264;82924;-88
2024/04/08 03:54:36;;;;;;;18.50;6.30;;;;;;;21.26;35.65;101390.82;108406;1264;69786;-88
2024/04/08 03:57:07;;;;;;;15.70;7.00;;;;;;;21.21;35.95;101387.27;108301;1264;67972;-89
2024/04/08 04:02:41;;;;;;;18.60;7.20;;;;;;;21.04;35.99;101391.42;108578;1265;81982;-89
2024/04/08 04:10:44;;;;;;;18.60;8.10;;;;;;;20.70;36.03;101394.87;108628;1265;68295;-89
2024/04/08 04:13:10;;;;;;;16.10;8.00;;;;;;;20.61;36.11;101394.71;108344;1264;75333;-88
2024/04/08 04:15:37;;;;;;;19.30;7.50;;;;;;;20.55;36.07;101398.19;108280;1264;69883;-89
2024/04/08 04:36:04;;;;;;;22.90;7.70;;;;;;;20.38;36.54;101407.11;108732;1268;67877;31
2024/04/08 04:44:00;;;;;;;13.70;7.50;;;;;;;20.38;36.74;101418.05;108513;1265;82866;-84
2024/04/08 04:46:26;;;;;;;19.40;8.60;;;;;;;20.39;36.79;101421.19;108509;1271;67599;-87
2024/04/08 04:48:52;;;;;;;13.90;7.70;;;;;;;20.39;36.70;101417.55;108173;1266;69952;-84
2024/04/08 04:51:18;;;;;;;15.80;8.20;;;;;;;20.31;36.92;101416.24;108395;1265;68458;-86
2024/04/08 04:53:46;;;;;;;12.00;7.60;;;;;;;20.24;36.99;101416.88;108243;1265;68774;-87
2024/04/08 04:56:12;;;;;;;14.10;8.40;;;;;;;20.17;37.21;101418.38;108354;1265;68529;-88
2024/04/08 04:58:38;;;;;;;15.00;8.50;;;;;;;20.09;37.24;101420.12;108460;1266;70133;-87
2024/04/08 05:01:06;;;;;;;14.10;8.50;;;;;;;20.01;37.44;101418.86;108237;1265;69946;-89
2024/04/08 05:06:14;;;;;;;22.90;8.50;;;;;;;19.82;37.58;101411.77;108265;1269;75029;-86
2024/04/08 05:14:22;;;;;;;56.40;8.40;;;;;;;19.72;37.68;101413.61;108769;1262;68394;-89
2024/04/08 05:33:12;;;;;;;37.80;11.20;;;;;;;20.07;37.17;101427.96;108966;1267;67333;-90
2024/04/08 05:41:26;;;;;;;20.20;8.80;;;;;;;20.20;37.07;101425.04;109014;1262;73677;-89
2024/04/08 06:02:10;;;;;;;16.40;7.30;;;;;;;19.84;37.25;101430.91;108979;1264;66551;-86
2024/04/08 06:10:12;;;;;;;17.10;7.00;;;;;;;20.09;37.31;101436.84;108490;1267;73499;-88
2024/04/08 06:12:40;;;;;;;17.30;7.00;;;;;;;20.15;37.40;101432.29;108306;1267;67983;-87
2024/04/08 06:17:56;;;;;;;17.30;8.30;;;;;;;20.28;37.28;101433.04;108397;1268;75615;-88
2024/04/08 06:20:23;;;;;;;18.70;11.30;;;;;;;20.31;37.14;101432.90;108385;1270;83217;-89
2024/04/08 06:31:37;;;;;;;23.60;8.90;;;;;;;20.15;37.08;101441.50;108642;1264;74211;-84
2024/04/08 06:39:46;;;;;;;17.80;9.00;;;;;;;20.25;37.19;101446.52;108672;1264;68562;-89
2024/04/08 06:47:41;;;;;;;17.20;8.40;;;;;;;20.19;37.37;101446.27;108462;1265;80118;-88
2024/04/08 06:50:07;;;;;;;14.10;7.80;;;;;;;20.25;37.37;101444.75;108524;1264;68036;-87
2024/04/08 06:55:48;;;;;;;20.80;9.00;;;;;;;20.35;37.23;101448.55;108686;1265;66200;-88
2024/04/08 07:10:12;;;;;;;25.70;8.90;;;;;;;20.49;37.56;101441.18;108663;1265;68173;-90
2024/04/08 07:13:18;;;;;;;20.80;9.00;;;;;;;20.54;37.71;101439.38;108664;1268;75171;-90
2024/04/08 07:15:59;;;;;;;21.90;9.30;;;;;;;20.58;37.91;101442.92;108192;1266;82820;-86
2024/04/08 07:18:25;;;;;;;26.30;9.90;;;;;;;20.63;37.90;101447.15;108347;1265;72301;-85
2024/04/08 07:20:51;;;;;;;22.90;9.20;;;;;;;20.69;37.95;101448.89;108502;1271;69957;-88
2024/04/08 07:23:16;;;;;;;20.60;9.00;;;;;;;20.72;37.93;101447.14;108421;1265;68304;-88
2024/04/08 07:25:42;;;;;;;20.10;8.20;;;;;;;20.76;37.94;101446.71;108480;1268;68369;-89
2024/04/08 08:10:28;;;;;;;12.20;5.20;;;;;;;21.02;37.48;101436.53;109037;1264;83120;-86
2024/04/08 08:13:01;;;;;;;16.20;5.10;;;;;;;21.06;37.15;101440.59;108974;1264;67651;-87
2024/04/08 08:15:27;;;;;;;13.20;5.30;;;;;;;21.10;37.38;101439.88;109132;1264;67252;-87
2024/04/08 08:47:22;;;;;;;27.50;12.70;;;;;;;21.27;36.85;101423.39;109068;1264;67912;-85
2024/04/08 08:49:52;;;;;;;27.50;12.00;;;;;;;21.28;36.93;101423.00;108963;1265;67524;-86
2024/04/08 08:52:19;;;;;;;23.00;11.10;;;;;;;21.31;36.90;101423.25;108939;1265;82753;-86
2024/04/08 08:57:35;;;;;;;10.90;7.30;;;;;;;21.36;36.95;101425.45;109044;1264;67179;-88
2024/04/08 09:00:05;;;;;;;18.70;7.80;;;;;;;21.36;36.75;101427.40;109061;1264;67620;-89
2024/04/08 09:03:02;;;;;;;12.10;6.20;;;;;;;21.34;36.63;101425.42;109012;1266;75617;-91
2024/04/08 09:14:33;;;;;;;17.60;9.00;;;;;;;21.36;36.36;101415.02;108996;1265;67967;-87
2024/04/08 09:17:24;;;;;;;13.10;6.90;;;;;;;21.36;36.23;101409.78;109097;1263;74048;-88
2024/04/08 09:19:57;;;;;;;13.90;6.90;;;;;;;21.35;36.21;101409.83;109041;1263;83071;-87
2024/04/08 09:22:43;;;;;;;19.50;7.30;;;;;;;21.34;36.23;101406.17;109109;1264;71655;-89
2024/04/08 09:28:11;;;;;;;15.90;6.00;;;;;;;21.35;36.26;101396.31;109180;1263;67714;-89
2024/04/08 09:34:09;;;;;;;12.00;6.00;;;;;;;21.33;36.10;101392.61;109115;1264;81701;-87
2024/04/08 09:36:35;;;;;;;19.60;6.30;;;;;;;21.33;36.16;101385.60;109106;1263;72285;-86
2024/04/08 09:39:01;;;;;;;13.90;6.20;;;;;;;21.33;36.03;101379.65;109241;1264;67412;-88
2024/04/08 09:41:27;;;;;;;11.90;6.10;;;;;;;21.34;35.83;101374.19;109254;1264;67642;-86
2024/04/08 09:43:53;;;;;;;19.10;7.20;;;;;;;21.34;35.94;101377.01;109314;1264;67502;-85
2024/04/08 09:46:19;;;;;;;15.60;6.10;;;;;;;21.33;35.81;101371.09;108989;1264;67150;-88
2024/04/08 09:48:45;;;;;;;18.70;5.70;;;;;;;21.32;35.75;101370.07;109193;1264;66886;-85
2024/04/08 09:51:11;;;;;;;10.50;5.20;;;;;;;21.32;36.04;101374.27;108939;1264;67871;-85
2024/04/08 09:53:39;;;;;;;9.70;4.50;;;;;;;21.30;35.79;101370.86;108936;1264;75269;-90
2024/04/08 10:01:46;;;;;;;12.50;4.30;;;;;;;21.29;35.61;101364.86;109132;1264;66136;-88
2024/04/08 10:12:40;;;;;;;20.40;5.00;;;;;;;21.34;35.88;101351.16;109030;1262;72101;-88
2024/04/08 10:27:20;;;;;;;10.40;3.80;;;;;;;21.33;36.36;101336.30;109175;1264;71076;-88
2024/04/08 10:48:16;;;;;;;6.80;2.60;;;;;;;21.25;35.19;101313.31;109220;1265;73737;-90
2024/04/08 10:56:55;;;;;;;12.20;3.00;;;;;;;21.32;35.53;101303.52;109041;1264;68316;-90
2024/04/08 11:24:43;;;;;;;6.50;2.20;;;;;;;21.44;34.95;101271.19;108537;1268;551769;-89
2024/04/08 12:32:54;;;;;;;7.70;2.30;;;;;;;21.66;34.08;101189.76;108857;1267;75462;-90
2024/04/08 13:08:59;;;;;;;3.90;2.20;;;;;;;21.80;33.48;101158.58;108762;1263;552839;-92
2024/04/08 13:20:34;;;;;;;7.90;1.80;;;;;;;21.81;33.09;101143.20;108943;1265;81567;-90
2024/04/08 13:23:09;;;;;;;14.30;2.50;;;;;;;21.81;32.92;101147.87;108851;1265;73315;-90
2024/04/08 14:27:10;;;;;;;3.00;1.50;;;;;;;21.86;31.89;101105.80;108508;1262;557385;-88
2024/04/08 14:32:11;;;;;;;6.30;1.90;;;;;;;21.87;31.89;101098.84;109163;1262;81584;-89
2024/04/08 14:34:37;;;;;;;3.80;1.70;;;;;;;21.88;31.69;101102.23;109037;1263;73253;-89
2024/04/08 14:37:05;;;;;;;4.10;1.60;;;;;;;21.88;31.80;101100.39;109006;1264;67477;-89
2024/04/08 14:39:32;;;;;;;3.10;1.50;;;;;;;21.88;31.69;101098.60;109120;1264;67925;-90
2024/04/08 14:41:58;;;;;;;4.00;1.50;;;;;;;21.89;31.73;101100.39;109017;1264;67836;-88
2024/04/08 15:01:56;;;;;;;4.70;1.90;;;;;;;21.87;31.64;101099.30;109050;1264;71555;-90
2024/04/08 15:12:49;;;;;;;7.40;2.20;;;;;;;21.87;31.66;101101.52;108313;1264;555035;-89
2024/04/08 15:15:16;;;;;;;7.10;2.20;;;;;;;21.87;31.60;101097.71;108889;1267;73333;-87
2024/04/08 15:17:43;;;;;;;6.40;1.90;;;;;;;21.87;31.56;101093.77;108744;1270;67549;-88
2024/04/08 15:22:58;;;;;;;9.20;1.60;;;;;;;21.87;31.58;101095.56;109165;1264;74360;-88
2024/04/08 15:33:52;;;;;;;2.30;1.40;;;;;;;21.86;31.33;101089.35;108351;1264;552841;-89
2024/04/08 15:36:19;;;;;;;5.40;1.50;;;;;;;21.86;31.34;101090.08;109003;1266;75313;-89
2024/04/08 15:38:45;;;;;;;3.90;1.20;;;;;;;21.86;31.32;101091.20;108980;1265;82858;-86
2024/04/08 15:41:11;;;;;;;2.50;1.30;;;;;;;21.85;31.27;101088.89;108985;1263;67597;-86
2024/04/08 15:43:36;;;;;;;2.30;1.30;;;;;;;21.86;31.28;101090.95;108956;1266;67673;-86
2024/04/08 15:46:03;;;;;;;2.90;1.50;;;;;;;21.86;31.17;101087.10;108942;1264;67589;-88
2024/04/08 15:48:30;;;;;;;4.00;1.40;;;;;;;21.86;31.23;101087.36;108977;1266;66837;-86
2024/04/08 15:50:56;;;;;;;5.10;1.50;;;;;;;21.84;31.11;101085.50;108956;1263;67683;-85
2024/04/08 15:56:02;;;;;;;5.70;1.60;;;;;;;21.84;31.08;101081.87;109076;1267;67284;-88
2024/04/08 15:58:28;;;;;;;6.60;1.40;;;;;;;21.84;31.16;101082.16;108878;1267;67584;-87
2024/04/08 16:00:59;;;;;;;4.20;1.70;;;;;;;21.83;31.04;101080.12;108852;1267;67659;-87
2024/04/08 16:03:25;;;;;;;8.80;1.70;;;;;;;21.83;31.07;101080.98;108901;1267;83518;-86
2024/04/08 16:06:06;;;;;;;3.30;1.20;;;;;;;21.82;31.04;101082.27;108953;1266;73012;-87
2024/04/08 16:08:51;;;;;;;3.30;1.40;;;;;;;21.80;31.02;101082.71;109075;1264;68054;-89
2024/04/08 16:11:18;;;;;;;3.70;1.50;;;;;;;21.80;30.98;101082.91;108851;1266;67577;-88
2024/04/08 16:13:43;;;;;;;3.90;1.30;;;;;;;21.79;30.99;101080.04;108953;1264;67589;-88
2024/04/08 16:18:55;;;;;;;3.60;1.20;;;;;;;21.79;31.01;101074.05;109041;1264;72429;-89
2024/04/08 16:24:16;;;;;;;3.60;1.40;;;;;;;21.77;31.05;101071.52;108760;1267;552083;-87
2024/04/08 16:26:42;;;;;;;1.50;1.20;;;;;;;21.77;30.96;101072.60;108967;1263;75269;-86
2024/04/08 16:29:09;;;;;;;4.10;1.40;;;;;;;21.77;31.01;101068.91;109019;1266;67387;-87
2024/04/08 16:31:36;;;;;;;5.40;1.60;;;;;;;21.77;30.81;101070.77;108946;1264;67557;-87
2024/04/08 16:56:36;;;;;;;2.30;1.60;;;;;;;21.66;31.23;101073.35;109137;1264;82899;-88
2024/04/08 16:59:05;;;;;;;5.10;1.70;;;;;;;21.65;31.17;101076.62;109150;1263;67892;-89
2024/04/08 17:01:31;;;;;;;7.90;1.90;;;;;;;21.63;31.23;101081.22;109114;1262;67624;-88
2024/04/08 17:06:40;;;;;;;4.50;2.20;;;;;;;21.62;31.14;101082.34;109190;1264;74368;-89
2024/04/08 17:09:11;;;;;;;10.70;2.20;;;;;;;21.61;31.35;101086.42;109056;1264;83698;-89
2024/04/08 17:11:37;;;;;;;6.60;2.40;;;;;;;21.60;31.16;101088.87;108918;1265;73337;-89
2024/04/08 17:16:43;;;;;;;9.10;2.20;;;;;;;21.60;31.47;101092.95;108956;1267;67646;-88
2024/04/08 17:21:47;;;;;;;6.50;2.40;;;;;;;21.58;31.49;101096.31;109043;1266;83266;-87
2024/04/08 17:24:14;;;;;;;5.80;2.30;;;;;;;21.58;31.59;101100.14;108823;1265;67683;-89
2024/04/08 17:26:42;;;;;;;7.80;2.50;;;;;;;21.57;31.55;101100.39;108818;1267;68082;-88
2024/04/08 17:29:11;;;;;;;4.50;2.50;;;;;;;21.57;31.48;101104.54;108829;1264;67818;-89
2024/04/08 17:31:41;;;;;;;13.90;4.80;;;;;;;21.56;31.80;101106.78;108975;1264;75234;-88
2024/04/08 17:34:07;;;;;;;8.20;3.30;;;;;;;21.55;31.75;101110.05;109163;1264;83006;-89
2024/04/08 17:36:34;;;;;;;15.20;3.60;;;;;;;21.54;31.80;101113.69;108880;1264;67784;-88
2024/04/08 17:39:01;;;;;;;8.80;3.00;;;;;;;21.52;31.90;101111.32;109023;1264;67702;-89
2024/04/08 17:41:27;;;;;;;13.70;3.20;;;;;;;21.49;32.10;101111.65;108912;1264;67619;-88
2024/04/08 17:43:55;;;;;;;8.30;3.10;;;;;;;21.47;32.04;101113.80;108971;1264;67374;-89
2024/04/08 17:46:21;;;;;;;8.90;3.10;;;;;;;21.48;32.10;101111.69;109011;1264;82945;-89
2024/04/08 17:51:24;;;;;;;6.80;2.90;;;;;;;21.49;32.27;101112.38;108963;1267;67519;-88
2024/04/08 17:56:39;;;;;;;4.30;2.70;;;;;;;21.51;32.21;101117.55;109167;1264;75114;-88
2024/04/08 17:59:05;;;;;;;6.10;3.00;;;;;;;21.51;32.08;101117.45;108965;1264;82790;-88
2024/04/08 18:01:30;;;;;;;9.40;2.90;;;;;;;21.52;32.07;101115.98;108951;1264;67358;-89
2024/04/08 18:03:56;;;;;;;4.50;2.70;;;;;;;21.53;32.15;101110.92;108937;1264;67672;-89
2024/04/08 18:06:22;;;;;;;6.20;2.70;;;;;;;21.54;32.05;101116.10;108858;1264;67083;-89
2024/04/08 18:08:49;;;;;;;6.10;2.50;;;;;;;21.54;32.24;101116.56;108899;1265;67578;-89
2024/04/08 18:11:15;;;;;;;5.60;2.70;;;;;;;21.55;32.09;101116.52;108978;1265;67050;-89
2024/04/08 18:19:19;;;;;;;5.20;2.80;;;;;;;21.55;32.02;101117.84;109086;1268;67264;-87
2024/04/08 18:24:30;;;;;;;6.30;2.50;;;;;;;21.55;32.01;101115.60;109015;1265;83603;-87
2024/04/08 18:26:56;;;;;;;6.50;2.60;;;;;;;21.56;32.15;101117.79;108878;1264;67634;-89
2024/04/08 18:29:22;;;;;;;5.10;2.70;;;;;;;21.56;32.07;101116.16;108891;1264;66889;-89
2024/04/08 18:31:47;;;;;;;4.80;2.80;;;;;;;21.56;32.12;101114.58;108948;1264;67775;-89
2024/04/08 18:36:54;;;;;;;4.10;2.90;;;;;;;21.56;32.15;101118.02;109027;1266;82468;-89
2024/04/08 18:39:20;;;;;;;5.40;2.60;;;;;;;21.57;31.96;101116.21;108824;1267;67668;-88
2024/04/08 18:47:28;;;;;;;3.80;2.90;;;;;;;21.56;32.00;101115.18;109168;1264;74600;-87
2024/04/08 18:49:54;;;;;;;3.70;2.60;;;;;;;21.56;32.09;101114.88;109097;1264;67666;-89
2024/04/08 18:52:27;;;;;;;4.40;2.70;;;;;;;21.57;32.05;101112.27;108901;1264;67546;-89
2024/04/08 18:54:56;;;;;;;6.10;2.90;;;;;;;21.56;32.06;101108.73;109135;1264;67650;-89
2024/04/08 18:57:22;;;;;;;3.90;2.70;;;;;;;21.56;32.14;101105.20;108971;1264;67667;-88
2024/04/08 19:02:32;;;;;;;5.20;2.80;;;;;;;21.57;31.98;101109.05;108922;1267;82922;-89
2024/04/08 19:04:58;;;;;;;5.80;3.30;;;;;;;21.57;32.15;101109.61;108785;1267;67728;-89
2024/04/08 19:07:24;;;;;;;3.90;3.10;;;;;;;21.56;32.02;101110.13;108852;1267;67400;-89
2024/04/08 19:09:50;;;;;;;5.90;2.70;;;;;;;21.57;32.06;101111.15;108856;1267;68163;-89
2024/04/08 19:12:15;;;;;;;7.20;3.20;;;;;;;21.57;32.07;101115.66;108870;1267;67642;-89
2024/04/08 19:14:41;;;;;;;5.80;3.10;;;;;;;21.57;32.15;101115.23;108943;1267;67697;-89
2024/04/08 19:17:08;;;;;;;8.50;3.60;;;;;;;21.57;31.95;101115.40;108877;1267;67614;-90
2024/04/08 19:19:47;;;;;;;4.10;3.20;;;;;;;21.57;32.12;101109.51;108958;1265;67582;-89
2024/04/08 19:22:14;;;;;;;5.10;3.60;;;;;;;21.56;32.03;101111.10;108971;1265;67665;-90
2024/04/08 19:24:52;;;;;;;5.60;3.50;;;;;;;21.56;32.12;101112.78;109129;1262;81428;-89
2024/04/08 19:27:18;;;;;;;4.50;3.20;;;;;;;21.56;32.04;101112.48;109046;1264;72244;-89
2024/04/08 19:29:45;;;;;;;5.50;3.00;;;;;;;21.56;32.15;101107.81;109108;1264;67519;-89
2024/04/08 19:32:10;;;;;;;5.90;3.50;;;;;;;21.56;32.06;101106.84;108967;1264;67506;-88
2024/04/08 19:34:36;;;;;;;8.60;3.50;;;;;;;21.56;32.18;101108.73;108914;1264;66985;-89
2024/04/08 19:37:04;;;;;;;5.60;3.50;;;;;;;21.55;32.21;101103.81;108984;1264;68106;-87
2024/04/08 19:42:15;;;;;;;7.80;4.00;;;;;;;21.55;32.03;101100.54;109013;1265;67913;-88
2024/04/08 19:44:44;;;;;;;6.30;3.60;;;;;;;21.56;32.03;101100.02;108995;1265;67334;-89
2024/04/08 19:47:10;;;;;;;7.10;3.50;;;;;;;21.55;32.06;101099.92;109011;1264;74635;-89
2024/04/08 19:49:38;;;;;;;6.80;3.40;;;;;;;21.55;32.13;101103.20;108979;1264;67279;-89
2024/04/08 19:52:13;;;;;;;5.60;3.40;;;;;;;21.55;32.06;101102.48;109043;1264;72371;-89
2024/04/08 19:57:30;;;;;;;6.50;3.40;;;;;;;21.54;32.05;101102.23;109311;1264;66907;-92
2024/04/08 20:00:08;;;;;;;6.30;3.10;;;;;;;21.54;31.93;101101.52;109090;1264;75468;-89
2024/04/08 20:02:38;;;;;;;6.40;3.90;;;;;;;21.54;32.09;101100.27;109113;1264;82796;-89
2024/04/08 20:05:05;;;;;;;6.60;3.60;;;;;;;21.54;31.97;101098.39;108974;1264;72439;-89
2024/04/08 20:07:31;;;;;;;6.50;3.90;;;;;;;21.54;32.20;101102.78;109284;1264;67670;-88
2024/04/08 20:12:40;;;;;;;8.90;3.80;;;;;;;21.54;32.13;101101.77;108973;1267;74874;-89
2024/04/08 20:15:07;;;;;;;9.20;3.90;;;;;;;21.54;32.06;101100.33;108823;1267;67702;-89
2024/04/08 20:17:32;;;;;;;7.50;3.60;;;;;;;21.53;32.03;101102.02;108867;1267;67624;-89
2024/04/08 20:22:37;;;;;;;7.50;3.90;;;;;;;21.53;32.01;101102.27;109187;1262;67541;-89
2024/04/08 20:25:03;;;;;;;5.70;3.60;;;;;;;21.53;31.96;101099.86;109173;1263;67410;-88
2024/04/08 20:27:33;;;;;;;6.60;3.70;;;;;;;21.54;32.01;101102.83;109147;1260;67032;31
2024/04/08 20:29:59;;;;;;;9.60;3.70;;;;;;;21.53;31.99;101101.70;109096;1264;72394;-89
2024/04/08 20:32:25;;;;;;;7.90;3.60;;;;;;;21.53;32.01;101099.35;109084;1264;67320;-88
2024/04/08 20:34:58;;;;;;;9.30;3.90;;;;;;;21.53;31.93;101093.46;109206;1264;66966;-89
2024/04/08 20:37:24;;;;;;;9.50;3.70;;;;;;;21.53;31.81;101092.90;108979;1263;74978;-88
2024/04/08 20:42:40;;;;;;;9.60;3.60;;;;;;;21.52;32.01;101092.69;109082;1265;71299;-87
2024/04/08 20:47:51;;;;;;;6.60;3.50;;;;;;;21.53;31.85;101092.98;109277;1263;67793;-88
2024/04/08 20:50:17;;;;;;;7.70;3.30;;;;;;;21.51;31.70;101090.73;109089;1264;66906;-88
2024/04/08 20:55:27;;;;;;;8.20;3.40;;;;;;;21.52;31.90;101088.38;109059;1265;72223;-89
2024/04/08 20:57:53;;;;;;;7.20;3.40;;;;;;;21.51;31.88;101082.14;109008;1265;67611;-88
2024/04/08 21:08:34;;;;;;;7.20;3.60;;;;;;;21.50;31.71;101074.65;109224;1264;71382;-88
2024/04/08 21:11:01;;;;;;;6.40;3.30;;;;;;;21.50;31.63;101074.55;109039;1265;66907;-89
2024/04/08 21:13:27;;;;;;;7.10;3.50;;;;;;;21.50;31.67;101072.14;109131;1264;68964;-88
2024/04/08 21:15:57;;;;;;;6.20;3.40;;;;;;;21.51;31.76;101077.52;109113;1263;67319;-89
2024/04/08 21:18:23;;;;;;;7.50;3.40;;;;;;;21.51;31.57;101072.59;109194;1262;82724;-86
2024/04/08 21:24:12;;;;;;;6.30;3.20;;;;;;;21.49;31.59;101072.13;109120;1265;67369;-89
2024/04/08 21:26:38;;;;;;;6.00;3.40;;;;;;;21.49;31.52;101071.83;108970;1265;67367;-89
2024/04/08 21:29:04;;;;;;;5.60;3.20;;;;;;;21.48;31.62;101070.95;109087;1263;67030;-88
2024/04/08 21:31:31;;;;;;;6.00;3.20;;;;;;;21.49;31.45;101070.44;109071;1263;67620;-89
2024/04/08 21:33:57;;;;;;;4.70;3.00;;;;;;;21.49;31.50;101069.57;109266;1264;67550;-89
2024/04/08 21:36:23;;;;;;;5.10;3.10;;;;;;;21.49;31.39;101069.71;109177;1263;67705;-89
2024/04/08 21:38:52;;;;;;;4.70;3.00;;;;;;;21.48;31.48;101062.81;109218;1263;67580;-89
2024/04/08 21:41:17;;;;;;;6.20;2.90;;;;;;;21.49;31.55;101064.65;109217;1263;66950;-89